createdAt,value
2018-02-21T00:01:16.972Z,-2.70
2018-02-21T00:03:45.103Z,-2.70
2018-02-21T00:06:13.270Z,-2.50
2018-02-21T00:08:41.410Z,-2.50
2018-02-21T00:11:09.576Z,-2.50
2018-02-21T00:13:37.713Z,-2.60
2018-02-21T00:16:06.633Z,-2.60
2018-02-21T00:18:34.782Z,-2.50
2018-02-21T00:21:03.709Z,-2.70
2018-02-21T00:23:31.851Z,-2.70
2018-02-21T00:26:00.786Z,-2.70
2018-02-21T00:28:28.919Z,-2.60
2018-02-21T00:30:57.843Z,-2.70
2018-02-21T00:33:25.983Z,-2.70
2018-02-21T00:35:54.910Z,-2.70
2018-02-21T00:38:23.049Z,-2.80
2018-02-21T00:40:51.975Z,-2.80
2018-02-21T00:43:20.112Z,-2.80
2018-02-21T00:45:49.046Z,-2.50
2018-02-21T00:48:17.178Z,-2.70
2018-02-21T00:50:46.135Z,-2.80
2018-02-21T00:53:14.278Z,-2.80
2018-02-21T00:55:42.445Z,-2.90
2018-02-21T00:58:10.579Z,-3.10
2018-02-21T01:00:38.742Z,-2.80
2018-02-21T01:03:06.880Z,-2.80
2018-02-21T01:05:35.035Z,-3.00
2018-02-21T01:08:03.178Z,-3.00
2018-02-21T01:10:31.345Z,-3.10
2018-02-21T01:13:00.242Z,-3.00
2018-02-21T01:15:28.408Z,-3.10
2018-02-21T01:17:57.313Z,-3.20
2018-02-21T01:20:25.486Z,-3.30
2018-02-21T01:22:54.385Z,-3.20
2018-02-21T01:25:22.531Z,-3.30
2018-02-21T01:27:50.689Z,-3.10
2018-02-21T01:30:18.826Z,-3.30
2018-02-21T01:32:46.988Z,-3.20
2018-02-21T01:35:15.130Z,-3.30
2018-02-21T01:37:44.056Z,-3.40
2018-02-21T01:40:12.192Z,-3.30
2018-02-21T01:42:40.355Z,-3.20
2018-02-21T01:45:08.506Z,-3.40
2018-02-21T01:47:36.671Z,-3.50
2018-02-21T01:50:04.806Z,-3.40
2018-02-21T01:52:32.984Z,-3.20
2018-02-21T01:55:01.118Z,-3.40
2018-02-21T01:57:29.285Z,-3.50
2018-02-21T01:59:57.422Z,-3.50
2018-02-21T02:02:25.582Z,-3.40
2018-02-21T02:04:53.717Z,-3.30
2018-02-21T02:07:21.876Z,-3.50
2018-02-21T02:09:50.014Z,-3.40
2018-02-21T02:12:18.187Z,-3.60
2018-02-21T02:14:46.324Z,-3.60
2018-02-21T02:17:14.480Z,-3.40
2018-02-21T02:19:42.613Z,-3.60
2018-02-21T02:22:10.777Z,-3.60
2018-02-21T02:24:38.916Z,-3.60
2018-02-21T02:27:07.077Z,-3.50
2018-02-21T02:29:35.215Z,-3.60
2018-02-21T02:32:03.375Z,-3.60
2018-02-21T02:34:31.513Z,-3.60
2018-02-21T02:36:59.680Z,-3.40
2018-02-21T02:39:40.434Z,-3.70
2018-02-21T02:42:08.598Z,-3.50
2018-02-21T02:44:36.735Z,-3.70
2018-02-21T02:47:04.898Z,-3.80
2018-02-21T02:49:33.034Z,-3.90
2018-02-21T02:52:01.194Z,-3.60
2018-02-21T02:54:29.336Z,-3.70
2018-02-21T02:56:57.499Z,-3.90
2018-02-21T02:59:25.637Z,-3.90
2018-02-21T03:01:53.793Z,-3.90
2018-02-21T03:04:21.931Z,-4.00
2018-02-21T03:06:50.093Z,-3.90
2018-02-21T03:09:18.229Z,-3.70
2018-02-21T03:11:46.394Z,-3.90
2018-02-21T03:14:14.520Z,-3.80
2018-02-21T03:16:42.686Z,-4.00
2018-02-21T03:19:10.816Z,-3.90
2018-02-21T03:21:38.981Z,-4.10
2018-02-21T03:24:07.121Z,-3.90
2018-02-21T03:26:35.281Z,-3.90
2018-02-21T03:29:03.428Z,-4.00
2018-02-21T03:31:31.595Z,-3.90
2018-02-21T03:33:59.729Z,-4.00
2018-02-21T03:36:27.890Z,-4.10
2018-02-21T03:38:56.040Z,-4.00
2018-02-21T03:41:24.183Z,-4.10
2018-02-21T03:43:52.358Z,-4.10
2018-02-21T03:46:20.488Z,-3.90
2018-02-21T03:48:48.651Z,-4.10
2018-02-21T03:51:16.789Z,-4.10
2018-02-21T03:53:44.963Z,-4.20
2018-02-21T03:56:13.861Z,-4.00
2018-02-21T03:58:42.022Z,-4.20
2018-02-21T04:01:10.925Z,-4.10
2018-02-21T04:03:39.080Z,-4.20
2018-02-21T04:06:07.991Z,-4.00
2018-02-21T04:08:36.153Z,-4.20
2018-02-21T04:11:05.050Z,-4.10
2018-02-21T04:13:33.210Z,-4.00
2018-02-21T04:16:02.110Z,-4.10
2018-02-21T04:18:30.273Z,-3.90
2018-02-21T04:20:58.406Z,-4.10
2018-02-21T04:23:26.561Z,-4.20
2018-02-21T04:25:54.698Z,-4.20
2018-02-21T04:28:22.860Z,-4.00
2018-02-21T04:30:51.005Z,-4.10
2018-02-21T04:33:19.172Z,-4.20
2018-02-21T04:35:47.307Z,-4.00
2018-02-21T04:38:15.518Z,-4.00
2018-02-21T04:40:43.651Z,-4.10
2018-02-21T04:43:11.821Z,-4.20
2018-02-21T04:45:39.956Z,-4.00
2018-02-21T04:48:08.123Z,-4.20
2018-02-21T04:50:36.258Z,-3.90
2018-02-21T04:53:04.418Z,-3.90
2018-02-21T04:55:32.553Z,-4.00
2018-02-21T04:58:06.315Z,-4.10
2018-02-21T05:00:34.455Z,-4.00
2018-02-21T05:03:02.635Z,-3.80
2018-02-21T05:05:31.538Z,-4.10
2018-02-21T05:07:59.698Z,-4.10
2018-02-21T05:10:28.596Z,-4.10
2018-02-21T05:12:56.760Z,-4.10
2018-02-21T05:15:25.668Z,-3.90
2018-02-21T05:17:53.825Z,-4.10
2018-02-21T05:20:22.727Z,-4.00
2018-02-21T05:22:50.890Z,-4.10
2018-02-21T05:25:19.784Z,-4.10
2018-02-21T05:27:47.946Z,-4.10
2018-02-21T05:30:16.082Z,-4.00
2018-02-21T05:32:44.240Z,-4.20
2018-02-21T05:35:12.380Z,-4.10
2018-02-21T05:37:40.550Z,-4.20
2018-02-21T05:40:09.463Z,-4.10
2018-02-21T05:42:37.620Z,-4.00
2018-02-21T05:45:06.522Z,-4.20
2018-02-21T05:47:34.722Z,-3.90
2018-02-21T05:50:02.870Z,-4.20
2018-02-21T05:52:31.039Z,-4.10
2018-02-21T05:54:59.174Z,-4.00
2018-02-21T05:57:27.345Z,-4.20
2018-02-21T05:59:55.485Z,-4.20
2018-02-21T06:02:23.645Z,-4.30
2018-02-21T06:04:51.786Z,-4.20
2018-02-21T06:07:19.951Z,-4.30
2018-02-21T06:09:48.086Z,-4.20
2018-02-21T06:12:16.253Z,-4.30
2018-02-21T06:14:44.399Z,-4.30
2018-02-21T06:17:12.545Z,-4.30
2018-02-21T06:19:40.719Z,-4.30
2018-02-21T06:22:08.869Z,-4.10
2018-02-21T06:24:37.037Z,-4.30
2018-02-21T06:27:05.168Z,-4.50
2018-02-21T06:29:33.344Z,-4.40
2018-02-21T06:32:01.486Z,-4.30
2018-02-21T06:34:29.654Z,-4.10
2018-02-21T06:36:57.809Z,-4.40
2018-02-21T06:39:25.970Z,-4.40
2018-02-21T06:41:54.105Z,-4.20
2018-02-21T06:44:23.035Z,-4.50
2018-02-21T06:46:51.184Z,-4.30
2018-02-21T06:49:19.372Z,-4.30
2018-02-21T06:51:47.511Z,-4.30
2018-02-21T06:54:16.276Z,-4.40
2018-02-21T06:56:44.421Z,-4.40
2018-02-21T06:59:12.577Z,-4.40
2018-02-21T07:01:40.713Z,-4.30
2018-02-21T07:04:08.868Z,-4.20
2018-02-21T07:06:37.014Z,-3.90
2018-02-21T07:09:05.178Z,-4.10
2018-02-21T07:11:33.321Z,-4.00
2018-02-21T07:14:01.495Z,-3.80
2018-02-21T07:16:30.389Z,-3.80
2018-02-21T07:18:58.558Z,-3.80
2018-02-21T07:21:27.464Z,-3.70
2018-02-21T07:23:55.618Z,-3.80
2018-02-21T07:26:24.516Z,-3.60
2018-02-21T07:28:52.677Z,-3.60
2018-02-21T07:31:21.584Z,-3.40
2018-02-21T07:33:49.757Z,-3.40
2018-02-21T07:36:17.894Z,-3.10
2018-02-21T07:38:46.057Z,-3.20
2018-02-21T07:41:14.210Z,-3.20
2018-02-21T07:43:42.372Z,-3.00
2018-02-21T07:46:10.510Z,-3.00
2018-02-21T07:48:38.668Z,-2.80
2018-02-21T07:51:06.814Z,-2.70
2018-02-21T07:53:35.250Z,-2.60
2018-02-21T07:56:04.145Z,-2.40
2018-02-21T07:58:32.312Z,-2.30
2018-02-21T08:01:01.218Z,-2.20
2018-02-21T08:03:29.401Z,-2.10
2018-02-21T08:05:57.539Z,-2.00
2018-02-21T08:08:25.702Z,-1.90
2018-02-21T08:10:53.843Z,-1.60
2018-02-21T08:13:21.997Z,-1.30
2018-02-21T08:15:50.193Z,-1.00
2018-02-21T08:18:18.357Z,-0.50
2018-02-21T08:20:46.538Z,-0.20
2018-02-21T08:23:14.694Z,0.20
2018-02-21T08:25:42.824Z,0.50
2018-02-21T08:28:10.997Z,0.70
2018-02-21T08:30:39.908Z,1.10
2018-02-21T08:33:08.125Z,1.10
2018-02-21T08:35:36.253Z,1.20
2018-02-21T08:38:04.384Z,1.30
2018-02-21T08:40:32.542Z,1.40
2018-02-21T08:43:00.682Z,1.50
2018-02-21T08:45:28.918Z,1.60
2018-02-21T08:47:57.057Z,1.80
2018-02-21T08:50:25.886Z,1.80
2018-02-21T08:52:54.028Z,1.80
2018-02-21T08:55:22.185Z,1.90
2018-02-21T08:57:50.317Z,1.90
2018-02-21T09:00:19.243Z,2.00
2018-02-21T09:02:47.381Z,2.00
2018-02-21T09:05:16.318Z,2.10
2018-02-21T09:07:44.446Z,2.10
2018-02-21T09:10:13.378Z,2.20
2018-02-21T09:12:41.511Z,2.20
2018-02-21T09:15:10.473Z,2.30
2018-02-21T09:17:38.614Z,2.30
2018-02-21T09:20:06.781Z,2.40
2018-02-21T09:22:34.908Z,2.50
2018-02-21T09:25:03.066Z,2.50
2018-02-21T09:27:31.197Z,2.60
2018-02-21T09:29:59.360Z,2.70
2018-02-21T09:32:27.493Z,2.80
2018-02-21T09:34:55.650Z,2.80
2018-02-21T09:37:23.781Z,2.90
2018-02-21T09:39:51.947Z,3.00
2018-02-21T09:42:20.075Z,3.00
2018-02-21T09:44:48.998Z,3.10
2018-02-21T09:47:17.132Z,3.10
2018-02-21T09:49:45.292Z,3.10
2018-02-21T09:52:13.430Z,3.20
2018-02-21T09:54:42.356Z,3.30
2018-02-21T09:57:10.490Z,3.30
2018-02-21T09:59:39.413Z,3.30
2018-02-21T10:02:07.542Z,3.30
2018-02-21T10:04:35.696Z,3.30
2018-02-21T10:07:04.749Z,3.40
2018-02-21T10:09:32.904Z,3.40
2018-02-21T10:12:01.043Z,3.50
2018-02-21T10:14:29.197Z,3.60
2018-02-21T10:16:57.369Z,3.60
2018-02-21T10:19:25.534Z,3.60
2018-02-21T10:21:53.673Z,3.70
2018-02-21T10:24:22.598Z,3.80
2018-02-21T10:26:50.734Z,3.80
2018-02-21T10:29:36.711Z,4.20
2018-02-21T10:32:04.842Z,4.10
2018-02-21T10:34:33.425Z,4.60
2018-02-21T10:37:01.558Z,4.90
2018-02-21T10:39:29.713Z,5.20
2018-02-21T10:41:57.860Z,4.90
2018-02-21T10:44:26.030Z,4.90
2018-02-21T10:46:54.178Z,5.10
2018-02-21T10:49:22.337Z,5.20
2018-02-21T10:51:50.469Z,5.30
2018-02-21T10:54:18.645Z,5.40
2018-02-21T10:56:46.777Z,5.40
2018-02-21T10:59:14.948Z,5.30
2018-02-21T11:01:43.094Z,5.30
2018-02-21T11:04:12.012Z,5.20
2018-02-21T11:06:40.145Z,5.10
2018-02-21T11:09:09.076Z,4.90
2018-02-21T11:11:37.214Z,4.90
2018-02-21T11:14:06.152Z,4.90
2018-02-21T11:16:34.313Z,4.90
2018-02-21T11:19:02.486Z,5.00
2018-02-21T11:21:30.631Z,5.00
2018-02-21T11:23:58.777Z,5.10
2018-02-21T11:26:27.016Z,5.20
2018-02-21T11:28:55.218Z,5.30
2018-02-21T11:31:23.380Z,5.20
2018-02-21T11:33:51.515Z,5.30
2018-02-21T11:36:19.672Z,5.30
2018-02-21T11:38:47.807Z,5.40
2018-02-21T11:41:15.982Z,5.40
2018-02-21T11:43:44.142Z,5.50
2018-02-21T11:46:12.331Z,5.60
2018-02-21T11:48:40.477Z,5.50
2018-02-21T11:51:08.645Z,5.50
2018-02-21T11:53:36.793Z,5.30
2018-02-21T11:56:04.945Z,5.20
2018-02-21T11:58:33.072Z,5.20
2018-02-21T12:01:01.239Z,5.20
2018-02-21T12:03:29.372Z,5.20
2018-02-21T12:05:57.535Z,5.10
2018-02-21T12:08:25.681Z,5.10
2018-02-21T12:10:53.846Z,5.10
2018-02-21T12:13:21.979Z,5.00
2018-02-21T12:15:50.137Z,5.00
2018-02-21T12:18:19.040Z,4.70
2018-02-21T12:20:47.209Z,4.70
2018-02-21T12:23:16.105Z,4.60
2018-02-21T12:25:44.265Z,4.60
2018-02-21T12:28:12.389Z,4.60
2018-02-21T12:30:40.546Z,4.70
2018-02-21T12:33:08.688Z,4.70
2018-02-21T12:35:36.846Z,4.50
2018-02-21T12:38:04.981Z,4.50
2018-02-21T12:40:38.736Z,4.50
2018-02-21T12:43:06.882Z,4.50
2018-02-21T12:45:35.045Z,4.50
2018-02-21T12:48:03.200Z,4.50
2018-02-21T12:50:31.362Z,4.40
2018-02-21T12:52:59.494Z,4.40
2018-02-21T12:55:27.712Z,4.40
2018-02-21T12:57:55.801Z,4.40
2018-02-21T13:00:23.956Z,4.40
2018-02-21T13:02:52.119Z,4.40
2018-02-21T13:05:20.284Z,4.40
2018-02-21T13:07:48.416Z,4.40
2018-02-21T13:10:16.577Z,4.50
2018-02-21T13:12:44.714Z,4.50
2018-02-21T13:15:12.865Z,4.50
2018-02-21T13:17:41.001Z,4.50
2018-02-21T13:20:09.926Z,4.50
2018-02-21T13:22:38.062Z,4.50
2018-02-21T13:25:06.229Z,4.50
2018-02-21T13:27:34.368Z,4.50
2018-02-21T13:30:03.307Z,4.60
2018-02-21T13:32:31.449Z,4.60
2018-02-21T13:34:59.610Z,4.60
2018-02-21T13:37:27.746Z,4.60
2018-02-21T13:39:55.909Z,4.70
2018-02-21T13:42:24.033Z,4.70
2018-02-21T13:44:52.157Z,4.70
2018-02-21T13:47:20.326Z,4.60
2018-02-21T13:49:48.464Z,4.60
2018-02-21T13:52:16.633Z,4.60
2018-02-21T13:54:44.805Z,4.60
2018-02-21T13:57:12.976Z,4.60
2018-02-21T13:59:41.106Z,4.60
2018-02-21T14:02:09.266Z,4.50
2018-02-21T14:04:37.393Z,4.40
2018-02-21T14:07:05.564Z,4.30
2018-02-21T14:09:33.697Z,4.10
2018-02-21T14:12:01.861Z,3.80
2018-02-21T14:14:29.981Z,3.60
2018-02-21T14:16:58.141Z,3.40
2018-02-21T14:19:26.278Z,3.20
2018-02-21T14:21:54.433Z,3.10
2018-02-21T14:24:22.630Z,3.00
2018-02-21T14:26:50.816Z,2.90
2018-02-21T14:29:18.962Z,2.80
2018-02-21T14:31:47.122Z,2.80
2018-02-21T14:34:15.266Z,2.70
2018-02-21T14:36:43.420Z,2.60
2018-02-21T14:39:11.546Z,2.50
2018-02-21T14:41:39.692Z,2.40
2018-02-21T14:44:07.826Z,2.30
2018-02-21T14:46:36.030Z,2.20
2018-02-21T14:49:04.930Z,2.10
2018-02-21T14:51:33.092Z,2.00
2018-02-21T14:54:01.994Z,1.90
2018-02-21T14:56:30.157Z,1.90
2018-02-21T14:58:59.053Z,1.90
2018-02-21T15:01:27.218Z,1.90
2018-02-21T15:03:56.130Z,1.90
2018-02-21T15:06:24.284Z,1.80
2018-02-21T15:08:53.191Z,1.90
2018-02-21T15:11:21.356Z,1.80
2018-02-21T15:13:50.249Z,1.90
2018-02-21T15:16:23.965Z,1.80
2018-02-21T15:18:52.100Z,1.90
2018-02-21T15:21:20.265Z,1.90
2018-02-21T15:23:48.396Z,1.90
2018-02-21T15:26:16.558Z,1.80
2018-02-21T15:28:44.685Z,1.80
2018-02-21T15:31:12.843Z,1.80
2018-02-21T15:33:40.971Z,1.80
2018-02-21T15:36:09.127Z,1.70
2018-02-21T15:38:38.103Z,1.70
2018-02-21T15:41:06.216Z,1.80
2018-02-21T15:43:34.345Z,1.60
2018-02-21T15:46:02.505Z,1.60
2018-02-21T15:48:30.634Z,1.60
2018-02-21T15:50:58.801Z,1.60
2018-02-21T15:53:26.943Z,1.60
2018-02-21T15:55:55.122Z,1.50
2018-02-21T15:58:23.256Z,1.50
2018-02-21T16:00:51.432Z,1.50
2018-02-21T16:03:19.568Z,1.50
2018-02-21T16:05:47.720Z,1.40
2018-02-21T16:08:15.876Z,1.40
2018-02-21T16:10:44.008Z,1.40
2018-02-21T16:13:12.170Z,1.30
2018-02-21T16:15:40.318Z,1.30
2018-02-21T16:18:08.464Z,1.20
2018-02-21T16:20:36.594Z,1.10
2018-02-21T16:23:04.806Z,1.00
2018-02-21T16:25:32.920Z,1.00
2018-02-21T16:28:01.068Z,0.90
2018-02-21T16:30:29.209Z,0.80
2018-02-21T16:32:57.362Z,0.80
2018-02-21T16:35:25.503Z,0.70
2018-02-21T16:37:53.683Z,0.70
2018-02-21T16:40:22.585Z,0.60
2018-02-21T16:42:50.746Z,0.50
2018-02-21T16:45:19.655Z,0.40
2018-02-21T16:47:47.820Z,0.50
2018-02-21T16:50:16.719Z,0.30
2018-02-21T16:52:44.902Z,0.40
2018-02-21T16:55:13.035Z,0.20
2018-02-21T16:57:41.199Z,0.10
2018-02-21T17:00:09.330Z,0.00
2018-02-21T17:02:37.491Z,-0.10
2018-02-21T17:05:05.625Z,0.00
2018-02-21T17:07:33.786Z,-0.20
2018-02-21T17:10:01.928Z,-0.30
2018-02-21T17:12:30.094Z,-0.40
2018-02-21T17:14:58.229Z,-0.40
2018-02-21T17:17:26.400Z,-0.40
2018-02-21T17:19:55.305Z,-0.40
2018-02-21T17:22:23.461Z,-0.50
2018-02-21T17:24:51.609Z,-0.60
2018-02-21T17:27:19.764Z,-0.60
2018-02-21T17:29:47.910Z,-0.70
2018-02-21T17:32:16.073Z,-0.70
2018-02-21T17:34:44.302Z,-0.80
2018-02-21T17:37:12.661Z,-0.80
2018-02-21T17:39:40.889Z,-0.90
2018-02-21T17:42:09.049Z,-0.80
2018-02-21T17:44:37.194Z,-0.90
2018-02-21T17:47:05.447Z,-0.90
2018-02-21T17:49:33.665Z,-1.00
2018-02-21T17:52:01.915Z,-1.00
2018-02-21T17:54:30.209Z,-1.00
2018-02-21T17:56:58.396Z,-1.00
2018-02-21T17:59:26.640Z,-1.10
2018-02-21T18:01:54.827Z,-1.10
2018-02-21T18:04:22.960Z,-1.10
2018-02-21T18:06:51.130Z,-1.20
2018-02-21T18:09:19.264Z,-1.30
2018-02-21T18:11:47.438Z,-1.30
2018-02-21T18:14:15.586Z,-1.30
2018-02-21T18:16:43.756Z,-1.30
2018-02-21T18:19:11.896Z,-1.40
2018-02-21T18:21:45.789Z,-1.30
2018-02-21T18:24:13.950Z,-1.30
2018-02-21T18:26:42.229Z,-1.40
2018-02-21T18:29:10.672Z,-1.50
2018-02-21T18:31:39.217Z,-1.60
2018-02-21T18:34:07.760Z,-1.50
2018-02-21T18:36:36.325Z,-1.70
2018-02-21T18:39:05.062Z,-1.70
2018-02-21T18:41:33.715Z,-1.70
2018-02-21T18:44:01.943Z,-1.70
2018-02-21T18:46:30.999Z,-1.70
2018-02-21T18:48:59.745Z,-1.90
2018-02-21T18:51:28.986Z,-1.90
2018-02-21T18:53:57.871Z,-1.90
2018-02-21T18:56:27.259Z,-1.90
2018-02-21T18:58:57.802Z,-2.00
2018-02-21T19:01:27.174Z,-2.10
2018-02-21T19:03:56.563Z,-1.90
2018-02-21T19:06:25.928Z,-2.10
2018-02-21T19:08:54.164Z,-2.00
2018-02-21T19:11:22.659Z,-2.20
2018-02-21T19:13:51.023Z,-1.90
2018-02-21T19:16:20.100Z,-2.20
2018-02-21T19:18:48.284Z,-2.20
2018-02-21T19:21:16.430Z,-2.20
2018-02-21T19:23:44.632Z,-2.10
2018-02-21T19:26:12.786Z,-2.30
2018-02-21T19:28:40.945Z,-2.20
2018-02-21T19:31:09.082Z,-2.40
2018-02-21T19:33:38.906Z,-2.40
2018-02-21T19:36:07.059Z,-2.20
2018-02-21T19:38:35.232Z,-2.30
2018-02-21T19:41:03.376Z,-2.30
2018-02-21T19:43:31.794Z,-2.50
2018-02-21T19:46:00.003Z,-2.30
2018-02-21T19:48:28.930Z,-2.40
2018-02-21T19:50:57.091Z,-2.60
2018-02-21T19:53:25.272Z,-2.60
2018-02-21T19:55:53.437Z,-2.60
2018-02-21T19:58:21.630Z,-2.60
2018-02-21T20:00:49.772Z,-2.60
2018-02-21T20:03:18.969Z,-2.60
2018-02-21T20:05:47.556Z,-2.70
2018-02-21T20:08:15.957Z,-2.70
2018-02-21T20:10:45.128Z,-2.60
2018-02-21T20:13:13.974Z,-2.50
2018-02-21T20:15:43.030Z,-2.70
2018-02-21T20:18:11.771Z,-2.80
2018-02-21T20:20:41.095Z,-2.60
2018-02-21T20:23:10.698Z,-2.80
2018-02-21T20:25:38.970Z,-2.70
2018-02-21T20:28:07.930Z,-2.80
2018-02-21T20:30:36.065Z,-2.70
2018-02-21T20:33:04.362Z,-2.80
2018-02-21T20:35:32.548Z,-2.80
2018-02-21T20:38:00.726Z,-2.90
2018-02-21T20:40:28.869Z,-3.00
2018-02-21T20:42:57.104Z,-2.80
2018-02-21T20:45:25.374Z,-3.00
2018-02-21T20:47:54.411Z,-2.80
2018-02-21T20:50:22.697Z,-2.90
2018-02-21T20:52:50.984Z,-3.00
2018-02-21T20:55:19.239Z,-3.00
2018-02-21T20:57:47.417Z,-3.10
2018-02-21T21:00:15.581Z,-3.10
2018-02-21T21:02:43.756Z,-3.20
2018-02-21T21:05:11.935Z,-3.20
2018-02-21T21:07:40.122Z,-3.20
2018-02-21T21:10:08.282Z,-3.30
2018-02-21T21:12:36.431Z,-3.30
2018-02-21T21:15:04.653Z,-3.10
2018-02-21T21:17:32.781Z,-3.20
2018-02-21T21:20:00.971Z,-3.40
2018-02-21T21:22:29.139Z,-3.30
2018-02-21T21:24:57.305Z,-3.40
2018-02-21T21:27:26.210Z,-3.40
2018-02-21T21:29:54.384Z,-3.30
2018-02-21T21:32:22.508Z,-3.50
2018-02-21T21:34:50.669Z,-3.30
2018-02-21T21:37:18.853Z,-3.50
2018-02-21T21:39:47.023Z,-3.50
2018-02-21T21:42:15.159Z,-3.50
2018-02-21T21:44:43.322Z,-3.50
2018-02-21T21:47:11.457Z,-3.40
2018-02-21T21:49:39.617Z,-3.70
2018-02-21T21:52:07.765Z,-3.70
2018-02-21T21:54:35.925Z,-3.60
2018-02-21T21:57:04.088Z,-3.50
2018-02-21T21:59:32.275Z,-3.70
2018-02-21T22:02:00.430Z,-3.80
2018-02-21T22:04:28.638Z,-3.70
2018-02-21T22:06:56.761Z,-3.80
2018-02-21T22:09:24.920Z,-3.90
2018-02-21T22:11:53.162Z,-3.90
2018-02-21T22:14:21.319Z,-3.90
2018-02-21T22:16:49.483Z,-4.00
2018-02-21T22:19:17.644Z,-4.00
2018-02-21T22:21:45.781Z,-4.00
2018-02-21T22:24:13.970Z,-4.00
2018-02-21T22:26:42.129Z,-3.80
2018-02-21T22:29:10.320Z,-3.80
2018-02-21T22:31:38.457Z,-4.00
2018-02-21T22:34:06.630Z,-4.10
2018-02-21T22:36:34.770Z,-4.10
2018-02-21T22:39:02.958Z,-4.10
2018-02-21T22:41:31.090Z,-3.90
2018-02-21T22:43:59.250Z,-4.10
2018-02-21T22:46:27.386Z,-4.20
2018-02-21T22:48:55.549Z,-4.10
2018-02-21T22:51:23.741Z,-4.10
2018-02-21T22:53:51.873Z,-4.20
2018-02-21T22:56:20.774Z,-4.20
2018-02-21T22:58:48.933Z,-4.30
2018-02-21T23:01:17.832Z,-4.30
2018-02-21T23:03:46.021Z,-4.40
2018-02-21T23:06:14.158Z,-4.30
2018-02-21T23:08:42.326Z,-4.30
2018-02-21T23:11:10.453Z,-4.30
2018-02-21T23:13:38.617Z,-4.10
2018-02-21T23:16:06.758Z,-4.40
2018-02-21T23:18:34.925Z,-4.30
2018-02-21T23:21:03.069Z,-4.20
2018-02-21T23:23:31.239Z,-4.30
2018-02-21T23:25:59.369Z,-4.30
2018-02-21T23:28:27.534Z,-4.30
2018-02-21T23:30:55.694Z,-4.40
2018-02-21T23:33:24.602Z,-4.40
2018-02-21T23:35:52.761Z,-4.40
2018-02-21T23:38:21.662Z,-4.40
2018-02-21T23:40:49.835Z,-4.40
2018-02-21T23:43:18.735Z,-4.40
2018-02-21T23:45:46.894Z,-4.20
2018-02-21T23:48:15.796Z,-4.20
2018-02-21T23:50:43.958Z,-4.20
2018-02-21T23:53:12.863Z,-4.40
2018-02-21T23:55:41.021Z,-4.50
2018-02-21T23:58:09.917Z,-4.50
